createdAt,value
2022-07-25T00:02:05.513Z,9.20
2022-07-25T00:04:44.535Z,8.43
2022-07-25T00:07:32.749Z,9.33
2022-07-25T00:10:13.838Z,9.60
2022-07-25T00:12:42.151Z,9.07
2022-07-25T00:18:40.682Z,9.03
2022-07-25T00:21:41.889Z,9.20
2022-07-25T00:24:28.852Z,9.67
2022-07-25T00:27:02.853Z,10.00
2022-07-25T00:29:33.566Z,9.37
2022-07-25T00:32:14.130Z,9.73
2022-07-25T00:34:59.946Z,9.00
2022-07-25T00:37:36.755Z,9.70
2022-07-25T00:40:05.755Z,9.23
2022-07-25T00:42:38.695Z,9.90
2022-07-25T00:45:21.487Z,8.20
2022-07-25T00:47:49.992Z,10.00
2022-07-25T00:50:19.933Z,9.83
2022-07-25T00:52:48.752Z,9.17
2022-07-25T00:55:17.020Z,9.27
2022-07-25T00:58:04.949Z,9.83
2022-07-25T01:00:45.952Z,10.10
2022-07-25T01:03:43.393Z,9.47
2022-07-25T01:06:29.108Z,9.17
2022-07-25T01:08:58.195Z,8.17
2022-07-25T01:11:29.862Z,9.30
2022-07-25T01:13:59.161Z,9.73
2022-07-25T01:16:27.272Z,9.07
2022-07-25T01:18:55.219Z,9.60
2022-07-25T01:21:25.774Z,9.70
2022-07-25T01:23:53.817Z,8.87
2022-07-25T01:26:21.744Z,9.60
2022-07-25T01:28:49.831Z,10.10
2022-07-25T01:31:17.891Z,8.97
2022-07-25T01:33:46.238Z,9.03
2022-07-25T01:36:14.167Z,9.23
2022-07-25T01:38:43.484Z,8.80
2022-07-25T01:41:11.425Z,9.57
2022-07-25T01:43:39.373Z,10.37
2022-07-25T01:46:07.663Z,10.00
2022-07-25T01:48:35.698Z,8.90
2022-07-25T01:51:03.596Z,9.53
2022-07-25T01:53:32.291Z,9.00
2022-07-25T01:56:02.831Z,9.40
2022-07-25T01:58:31.375Z,7.80
2022-07-25T02:00:59.315Z,10.77
2022-07-25T02:03:33.131Z,10.70
2022-07-25T02:06:02.819Z,8.73
2022-07-25T02:08:31.233Z,9.07
2022-07-25T02:11:01.176Z,9.57
2022-07-25T02:13:29.138Z,9.40
2022-07-25T02:15:57.307Z,9.00
2022-07-25T02:18:25.150Z,9.23
2022-07-25T02:20:53.005Z,9.10
2022-07-25T02:23:20.902Z,8.87
2022-07-25T02:34:48.275Z,9.43
2022-07-25T02:37:16.124Z,9.30
2022-07-25T02:39:44.011Z,9.70
2022-07-25T02:42:11.844Z,9.20
2022-07-25T02:44:39.690Z,9.80
2022-07-25T02:47:07.635Z,9.23
2022-07-25T02:49:35.619Z,8.53
2022-07-25T02:52:05.262Z,9.03
2022-07-25T02:54:33.116Z,9.00
2022-07-25T02:57:00.986Z,10.23
2022-07-25T02:59:32.409Z,9.20
2022-07-25T03:02:00.540Z,8.87
2022-07-25T03:04:28.488Z,9.40
2022-07-25T03:06:56.414Z,9.80
2022-07-25T03:09:25.695Z,8.70
2022-07-25T03:11:53.770Z,8.70
2022-07-25T03:14:21.591Z,8.33
2022-07-25T03:16:49.465Z,9.70
2022-07-25T03:19:17.588Z,9.90
2022-07-25T03:21:46.080Z,9.30
2022-07-25T03:24:13.952Z,10.13
2022-07-25T03:26:43.264Z,9.90
2022-07-25T03:29:11.153Z,9.80
2022-07-25T03:31:39.867Z,8.80
2022-07-25T03:34:08.298Z,10.03
2022-07-25T03:36:36.612Z,10.07
2022-07-25T03:39:05.464Z,9.30
2022-07-25T03:41:34.059Z,8.47
2022-07-25T03:44:03.709Z,9.37
2022-07-25T03:46:31.974Z,10.00
2022-07-25T03:49:00.015Z,9.70
2022-07-25T03:51:27.913Z,9.10
2022-07-25T03:54:05.273Z,9.23
2022-07-25T03:56:43.452Z,9.73
2022-07-25T03:59:15.840Z,9.77
2022-07-25T04:01:44.853Z,9.33
2022-07-25T04:04:13.317Z,9.77
2022-07-25T04:06:42.064Z,8.53
2022-07-25T04:09:11.371Z,8.73
2022-07-25T04:11:39.662Z,9.00
2022-07-25T04:14:08.302Z,9.83
2022-07-25T04:16:37.755Z,8.90
2022-07-25T04:19:08.695Z,9.93
2022-07-25T04:21:36.813Z,9.73
2022-07-25T04:24:05.147Z,9.47
2022-07-25T04:26:33.443Z,9.43
2022-07-25T04:29:03.474Z,8.97
2022-07-25T04:31:31.439Z,8.83
2022-07-25T04:34:01.342Z,9.37
2022-07-25T04:36:29.823Z,9.43
2022-07-25T04:38:57.693Z,9.03
2022-07-25T04:41:25.766Z,9.00
2022-07-25T04:43:54.727Z,9.67
2022-07-25T04:46:23.939Z,10.07
2022-07-25T04:48:52.966Z,10.00
2022-07-25T04:51:22.373Z,9.20
2022-07-25T04:53:50.321Z,8.40
2022-07-25T04:56:18.251Z,9.43
2022-07-25T04:58:46.220Z,8.60
2022-07-25T05:01:14.196Z,8.90
2022-07-25T05:03:50.303Z,8.53
2022-07-25T05:06:18.788Z,9.23
2022-07-25T05:08:48.187Z,9.00
2022-07-25T05:11:16.178Z,8.33
2022-07-25T05:13:47.156Z,9.07
2022-07-25T05:16:15.433Z,9.90
2022-07-25T05:18:43.550Z,8.70
2022-07-25T05:21:12.488Z,8.33
2022-07-25T05:23:40.601Z,8.20
2022-07-25T05:26:09.862Z,7.70
2022-07-25T05:28:37.795Z,7.80
2022-07-25T05:31:05.957Z,7.33
2022-07-25T05:33:35.153Z,7.60
2022-07-25T05:36:05.135Z,7.70
2022-07-25T05:38:35.739Z,7.77
2022-07-25T05:41:16.731Z,7.47
2022-07-25T05:43:46.979Z,8.57
2022-07-25T05:46:17.757Z,7.87
2022-07-25T05:48:46.461Z,6.90
2022-07-25T05:51:14.408Z,6.73
2022-07-25T05:53:42.763Z,7.53
2022-07-25T05:56:10.700Z,7.67
2022-07-25T05:58:40.911Z,6.80
2022-07-25T06:01:09.114Z,6.83
2022-07-25T06:03:37.001Z,6.67
2022-07-25T06:06:05.205Z,7.77
2022-07-25T06:08:33.867Z,6.57
2022-07-25T06:11:03.947Z,7.10
2022-07-25T06:13:32.896Z,6.63
2022-07-25T06:16:04.131Z,6.43
2022-07-25T06:18:32.130Z,7.07
2022-07-25T06:21:00.408Z,6.80
2022-07-25T06:23:28.477Z,7.23
2022-07-25T06:25:57.180Z,6.57
2022-07-25T06:28:25.154Z,7.43
2022-07-25T06:30:53.145Z,6.70
2022-07-25T06:33:22.734Z,6.40
2022-07-25T06:35:50.637Z,6.87
2022-07-25T06:38:18.576Z,7.40
2022-07-25T06:40:46.610Z,6.90
2022-07-25T06:43:14.803Z,7.50
2022-07-25T06:45:47.942Z,6.20
2022-07-25T06:48:16.078Z,6.10
2022-07-25T06:50:45.724Z,6.40
2022-07-25T06:53:13.763Z,6.80
2022-07-25T06:55:41.703Z,7.23
2022-07-25T06:58:10.203Z,5.97
2022-07-25T07:00:45.125Z,6.37
2022-07-25T07:03:13.096Z,5.80
2022-07-25T07:05:43.241Z,5.40
2022-07-25T07:08:14.103Z,6.80
2022-07-25T07:10:42.665Z,5.87
2022-07-25T07:13:12.719Z,6.00
2022-07-25T07:15:49.125Z,6.03
2022-07-25T07:18:17.596Z,4.70
2022-07-25T07:20:45.624Z,5.40
2022-07-25T07:23:17.097Z,5.67
2022-07-25T07:25:47.097Z,5.77
2022-07-25T07:28:15.990Z,5.50
2022-07-25T07:31:15.607Z,4.70
2022-07-25T07:33:33.550Z,5.30
2022-07-25T07:36:01.849Z,4.57
2022-07-25T07:38:31.176Z,5.30
2022-07-25T07:40:59.102Z,6.00
2022-07-25T07:43:30.026Z,5.40
2022-07-25T07:46:00.606Z,5.63
2022-07-25T07:48:29.207Z,5.00
2022-07-25T07:50:57.282Z,5.10
2022-07-25T07:53:45.737Z,5.00
2022-07-25T07:56:14.205Z,5.20
2022-07-25T07:58:42.165Z,4.90
2022-07-25T08:01:11.179Z,5.17
2022-07-25T08:03:39.293Z,4.77
2022-07-25T08:06:07.697Z,5.13
2022-07-25T08:08:35.696Z,5.27
2022-07-25T08:11:03.670Z,4.50
2022-07-25T08:13:34.200Z,5.00
2022-07-25T08:16:04.339Z,5.07
2022-07-25T08:18:33.717Z,4.33
2022-07-25T08:21:05.448Z,4.43
2022-07-25T08:23:34.655Z,5.27
2022-07-25T08:26:04.041Z,4.40
2022-07-25T08:28:33.525Z,4.30
2022-07-25T08:31:01.874Z,4.20
2022-07-25T08:33:29.954Z,4.20
2022-07-25T08:36:01.492Z,4.03
2022-07-25T08:38:30.059Z,4.53
2022-07-25T08:40:59.677Z,4.60
2022-07-25T08:43:29.220Z,4.87
2022-07-25T08:46:01.114Z,4.50
2022-07-25T08:48:29.695Z,4.87
2022-07-25T08:50:58.196Z,4.60
2022-07-25T08:53:33.302Z,4.07
2022-07-25T08:56:06.654Z,4.43
2022-07-25T08:58:38.792Z,4.10
2022-07-25T09:01:08.231Z,4.20
2022-07-25T09:03:36.614Z,4.40
2022-07-25T09:06:15.713Z,4.03
2022-07-25T09:08:52.900Z,4.20
2022-07-25T09:11:32.186Z,4.17
2022-07-25T09:14:01.925Z,4.33
2022-07-25T09:16:40.154Z,4.03
2022-07-25T09:19:13.188Z,3.90
2022-07-25T09:21:42.317Z,4.07
2022-07-25T09:24:12.735Z,3.80
2022-07-25T09:26:48.683Z,3.97
2022-07-25T09:29:22.372Z,4.43
2022-07-25T09:31:52.743Z,3.00
2022-07-25T09:34:36.290Z,3.80
2022-07-25T09:37:06.370Z,3.53
2022-07-25T09:39:35.917Z,3.70
2022-07-25T09:42:14.954Z,3.80
2022-07-25T09:44:42.959Z,3.80
2022-07-25T09:47:16.407Z,3.77
2022-07-25T09:49:47.435Z,3.53
2022-07-25T09:52:17.245Z,4.20
2022-07-25T09:54:45.467Z,3.63
2022-07-25T09:57:13.446Z,3.73
